Time;durP1;ratioP1;P1;durP2;ratioP2;P2;SDS_P1;SDS_P2;PMS_P1;PMS_P2;Temp;Humidity;BMP_temperature;BMP_pressure;BME280_temperature;BME280_humidity;BME280_pressure;Samples;Min_cycle;Max_cycle;Signal;HPM_P1;HPM_P2
2023/11/04 00:02:20;;;;;;;5.57;2.47;;;;;;;;;;5115381;28;20245;-29
2023/11/04 00:04:45;;;;;;;6.15;2.55;;;;;;;;;;5115122;28;20275;-30
2023/11/04 00:07:11;;;;;;;4.25;2.20;;;;;;;;;;5114913;28;20019;-30
2023/11/04 00:09:37;;;;;;;3.83;2.30;;;;;;;;;;5114905;28;20497;-29
2023/11/04 00:12:02;;;;;;;4.38;1.98;;;;;;;;;;5114787;28;20015;-30
2023/11/04 00:14:27;;;;;;;5.57;2.35;;;;;;;;;;5114502;28;20016;-29
2023/11/04 00:16:53;;;;;;;6.63;2.23;;;;;;;;;;5114758;28;20027;-29
2023/11/04 00:19:18;;;;;;;5.10;2.10;;;;;;;;;;5115062;28;20334;-30
2023/11/04 00:21:43;;;;;;;4.80;2.13;;;;;;;;;;5114457;28;20090;-29
2023/11/04 00:24:10;;;;;;;4.20;2.13;;;;;;;;;;5114653;28;20260;-29
2023/11/04 00:26:35;;;;;;;3.70;2.28;;;;;;;;;;5114624;28;20085;-29
2023/11/04 00:29:00;;;;;;;5.00;2.27;;;;;;;;;;5114304;28;20428;-30
2023/11/04 00:31:27;;;;;;;7.53;2.83;;;;;;;;;;5114300;28;20242;-30
2023/11/04 00:33:52;;;;;;;5.65;2.47;;;;;;;;;;5114525;28;20470;-29
2023/11/04 00:36:18;;;;;;;5.17;2.50;;;;;;;;;;5114758;28;20062;-30
2023/11/04 00:38:43;;;;;;;6.70;2.30;;;;;;;;;;5114409;28;20671;-30
2023/11/04 00:41:08;;;;;;;3.53;2.03;;;;;;;;;;5114078;28;20253;-30
2023/11/04 00:43:35;;;;;;;4.25;2.00;;;;;;;;;;5114062;28;20023;-30
2023/11/04 00:46:00;;;;;;;7.95;2.10;;;;;;;;;;5114019;28;20052;-30
2023/11/04 00:48:25;;;;;;;6.47;2.30;;;;;;;;;;5114634;28;20027;-29
2023/11/04 00:50:51;;;;;;;3.80;2.13;;;;;;;;;;5113441;28;20097;-30
2023/11/04 00:53:16;;;;;;;3.90;2.15;;;;;;;;;;5114241;28;20269;-29
2023/11/04 00:55:41;;;;;;;4.07;2.30;;;;;;;;;;5114482;28;20016;-30
2023/11/04 00:58:07;;;;;;;4.90;2.30;;;;;;;;;;5114073;28;20281;-29
2023/11/04 01:00:33;;;;;;;7.53;2.30;;;;;;;;;;5114184;28;20023;-29
2023/11/04 01:02:58;;;;;;;9.40;2.60;;;;;;;;;;5114162;28;20369;-29
2023/11/04 01:05:23;;;;;;;4.50;2.25;;;;;;;;;;5113807;28;20090;-30
2023/11/04 01:07:49;;;;;;;4.17;2.40;;;;;;;;;;5113871;28;20474;-30
2023/11/04 01:10:14;;;;;;;4.55;2.60;;;;;;;;;;5114074;28;20285;-29
2023/11/04 01:12:40;;;;;;;4.88;2.30;;;;;;;;;;5113744;28;20023;-29
2023/11/04 01:15:05;;;;;;;8.30;2.50;;;;;;;;;;5114072;28;20015;-29
2023/11/04 01:17:31;;;;;;;4.72;2.53;;;;;;;;;;5113956;28;20473;-29
2023/11/04 01:19:56;;;;;;;4.77;2.60;;;;;;;;;;5113823;28;20022;-29
2023/11/04 01:22:21;;;;;;;7.83;2.87;;;;;;;;;;5113759;28;20276;-30
2023/11/04 01:24:46;;;;;;;4.03;2.60;;;;;;;;;;5113697;28;20245;-29
2023/11/04 01:27:11;;;;;;;4.07;2.58;;;;;;;;;;5114164;28;20264;-29
2023/11/04 01:29:36;;;;;;;6.30;2.80;;;;;;;;;;5113708;28;20373;-29
2023/11/04 01:32:02;;;;;;;3.87;2.70;;;;;;;;;;5114191;28;20250;-29
2023/11/04 01:34:27;;;;;;;10.57;2.83;;;;;;;;;;5113612;28;20253;-29
2023/11/04 01:36:52;;;;;;;4.23;2.53;;;;;;;;;;5114051;28;20303;-29
2023/11/04 01:39:17;;;;;;;4.20;2.78;;;;;;;;;;5113816;28;20261;-29
2023/11/04 01:41:43;;;;;;;5.55;2.95;;;;;;;;;;5113414;28;20370;-30
2023/11/04 01:44:08;;;;;;;7.15;3.05;;;;;;;;;;5113821;28;20034;-29
2023/11/04 01:46:34;;;;;;;7.28;2.95;;;;;;;;;;5113487;28;20106;-29
2023/11/04 01:48:59;;;;;;;6.95;3.05;;;;;;;;;;5113499;28;20429;-29
2023/11/04 01:51:25;;;;;;;6.47;3.00;;;;;;;;;;5113204;28;20066;-30
2023/11/04 01:53:51;;;;;;;6.00;2.80;;;;;;;;;;5113678;28;20345;-30
2023/11/04 01:56:25;;;;;;;4.47;2.53;;;;;;;;;;5113560;28;20015;-30
2023/11/04 01:58:51;;;;;;;6.60;3.15;;;;;;;;;;5113867;28;20023;-30
2023/11/04 02:01:16;;;;;;;10.32;3.10;;;;;;;;;;5113381;28;20426;-30
2023/11/04 02:03:42;;;;;;;4.90;3.15;;;;;;;;;;5117362;28;20073;-30
2023/11/04 02:06:07;;;;;;;6.10;3.00;;;;;;;;;;5117141;28;20018;-29
2023/11/04 02:08:34;;;;;;;4.20;3.00;;;;;;;;;;5117337;28;20383;-30
2023/11/04 02:10:59;;;;;;;6.03;3.38;;;;;;;;;;5117212;28;20405;-30
2023/11/04 02:13:25;;;;;;;7.97;3.30;;;;;;;;;;5117499;28;20023;-30
2023/11/04 02:15:50;;;;;;;5.30;3.47;;;;;;;;;;5116966;28;20438;-29
2023/11/04 02:18:15;;;;;;;6.97;2.97;;;;;;;;;;5116839;28;20347;-29
2023/11/04 02:20:41;;;;;;;6.85;3.13;;;;;;;;;;5116820;28;20275;-29
2023/11/04 02:23:06;;;;;;;5.70;3.35;;;;;;;;;;5116714;28;20023;-29
2023/11/04 02:25:33;;;;;;;6.88;3.65;;;;;;;;;;5117003;28;20016;-29
2023/11/04 02:27:59;;;;;;;5.05;3.22;;;;;;;;;;5116698;28;20166;-29
2023/11/04 02:30:24;;;;;;;8.52;3.70;;;;;;;;;;5117146;28;20156;-30
2023/11/04 02:32:49;;;;;;;6.88;3.50;;;;;;;;;;5116916;28;20580;-30
2023/11/04 02:35:15;;;;;;;10.57;3.88;;;;;;;;;;5116841;28;20049;-29
2023/11/04 02:37:40;;;;;;;6.20;3.80;;;;;;;;;;5116668;28;20023;-29
2023/11/04 02:40:06;;;;;;;7.43;3.80;;;;;;;;;;5116458;28;20073;-30
2023/11/04 02:42:31;;;;;;;8.00;3.67;;;;;;;;;;5116255;28;20256;-29
2023/11/04 02:44:56;;;;;;;7.43;3.93;;;;;;;;;;5116370;28;20019;-30
2023/11/04 02:47:22;;;;;;;4.77;3.63;;;;;;;;;;5116869;28;20332;-30
2023/11/04 02:49:47;;;;;;;8.85;3.78;;;;;;;;;;5116223;28;20265;-30
2023/11/04 02:52:12;;;;;;;6.32;3.90;;;;;;;;;;5116034;28;20044;-29
2023/11/04 02:54:37;;;;;;;9.30;4.20;;;;;;;;;;5116191;28;20015;-30
2023/11/04 02:57:03;;;;;;;6.93;4.10;;;;;;;;;;5116044;28;20755;-30
2023/11/04 02:59:30;;;;;;;7.68;4.15;;;;;;;;;;5116126;28;20039;-29
2023/11/04 03:01:56;;;;;;;10.57;3.90;;;;;;;;;;5116285;28;20511;-30
2023/11/04 03:04:21;;;;;;;6.13;3.78;;;;;;;;;;5116570;28;20015;-30
2023/11/04 03:06:46;;;;;;;5.30;3.57;;;;;;;;;;5115983;28;20019;-29
2023/11/04 03:09:12;;;;;;;8.83;4.03;;;;;;;;;;5116146;28;20268;-29
2023/11/04 03:11:37;;;;;;;8.38;4.28;;;;;;;;;;5116298;28;20600;-29
2023/11/04 03:14:02;;;;;;;7.40;4.28;;;;;;;;;;5115395;28;20020;-29
2023/11/04 03:16:27;;;;;;;12.47;4.43;;;;;;;;;;5115700;28;20043;-30
2023/11/04 03:18:52;;;;;;;7.57;4.20;;;;;;;;;;5115961;28;20303;-29
2023/11/04 03:21:18;;;;;;;6.70;4.40;;;;;;;;;;5115713;28;20458;-30
2023/11/04 03:23:44;;;;;;;7.70;4.32;;;;;;;;;;5116151;28;20062;-30
2023/11/04 03:26:09;;;;;;;7.32;4.35;;;;;;;;;;5115559;28;20111;-31
2023/11/04 03:28:34;;;;;;;9.02;4.38;;;;;;;;;;5116068;28;20072;-30
2023/11/04 03:31:00;;;;;;;9.10;4.30;;;;;;;;;;5115722;28;20027;-29
2023/11/04 03:33:25;;;;;;;9.32;4.40;;;;;;;;;;5115398;28;20019;-30
2023/11/04 03:35:51;;;;;;;8.65;4.40;;;;;;;;;;5115701;28;20069;-30
2023/11/04 03:38:16;;;;;;;7.20;4.55;;;;;;;;;;5115512;28;20019;-29
2023/11/04 03:40:41;;;;;;;7.22;4.40;;;;;;;;;;5115484;28;20012;-29
2023/11/04 03:43:07;;;;;;;6.30;4.20;;;;;;;;;;5115492;28;20514;-30
2023/11/04 03:45:32;;;;;;;8.95;3.78;;;;;;;;;;5115452;28;20447;-30
2023/11/04 03:47:57;;;;;;;6.30;3.80;;;;;;;;;;5115185;28;20458;-30
2023/11/04 03:50:22;;;;;;;11.35;4.47;;;;;;;;;;5115615;28;20262;-29
2023/11/04 03:52:48;;;;;;;8.33;4.17;;;;;;;;;;5114918;28;20402;-29
2023/11/04 03:55:13;;;;;;;7.80;3.93;;;;;;;;;;5114984;28;20266;-30
2023/11/04 03:57:38;;;;;;;10.03;4.23;;;;;;;;;;5115170;28;20636;-29
2023/11/04 04:00:03;;;;;;;5.93;3.80;;;;;;;;;;5115441;28;20349;-30
2023/11/04 04:02:28;;;;;;;10.98;4.28;;;;;;;;;;5115441;28;20701;-30
2023/11/04 04:04:53;;;;;;;7.40;4.07;;;;;;;;;;5114809;28;20022;-30
2023/11/04 04:07:19;;;;;;;10.20;4.30;;;;;;;;;;5114704;28;20258;-30
2023/11/04 04:09:44;;;;;;;7.50;3.75;;;;;;;;;;5115227;28;20253;-30
2023/11/04 04:12:09;;;;;;;8.17;3.53;;;;;;;;;;5114874;28;20051;-30
2023/11/04 04:14:34;;;;;;;8.97;4.00;;;;;;;;;;5114589;28;20612;-30
2023/11/04 04:17:01;;;;;;;7.57;3.70;;;;;;;;;;5114419;28;20273;-29
2023/11/04 04:19:26;;;;;;;6.43;3.35;;;;;;;;;;5114761;28;20779;-29
2023/11/04 04:21:51;;;;;;;9.30;3.90;;;;;;;;;;5114433;28;20048;-30
2023/11/04 04:24:17;;;;;;;5.37;3.80;;;;;;;;;;5113987;28;20642;-30
2023/11/04 04:26:42;;;;;;;10.18;3.60;;;;;;;;;;5114218;28;20292;-30
2023/11/04 04:29:07;;;;;;;7.05;3.53;;;;;;;;;;5114389;28;20054;-29
2023/11/04 04:31:33;;;;;;;8.20;3.80;;;;;;;;;;5114587;28;20023;-29
2023/11/04 04:33:58;;;;;;;6.13;3.70;;;;;;;;;;5114377;28;20466;-30
2023/11/04 04:36:23;;;;;;;6.93;4.03;;;;;;;;;;5114442;28;20411;-30
2023/11/04 04:38:48;;;;;;;12.07;4.10;;;;;;;;;;5114546;28;20285;-29
2023/11/04 04:41:14;;;;;;;8.07;3.90;;;;;;;;;;5114702;28;20020;-30
2023/11/04 04:43:39;;;;;;;6.15;4.07;;;;;;;;;;5114246;28;20023;-30
2023/11/04 04:46:04;;;;;;;7.77;4.63;;;;;;;;;;5114403;28;20019;-30
2023/11/04 04:48:29;;;;;;;8.10;4.20;;;;;;;;;;5114299;28;20704;-30
2023/11/04 04:50:54;;;;;;;8.60;4.57;;;;;;;;;;5113767;28;20310;-30
2023/11/04 04:53:20;;;;;;;8.32;4.20;;;;;;;;;;5114271;28;20028;-30
2023/11/04 04:55:45;;;;;;;9.50;4.30;;;;;;;;;;5114019;28;20019;-30
2023/11/04 04:58:11;;;;;;;8.60;4.63;;;;;;;;;;5114123;28;20098;-30
2023/11/04 05:00:36;;;;;;;8.57;4.35;;;;;;;;;;5114265;28;20039;-30
2023/11/04 05:03:03;;;;;;;9.37;4.33;;;;;;;;;;5113929;28;20027;-29
2023/11/04 05:05:28;;;;;;;7.80;4.30;;;;;;;;;;5113803;28;20254;-29
2023/11/04 05:07:53;;;;;;;11.77;4.87;;;;;;;;;;5114471;28;20065;-30
2023/11/04 05:10:18;;;;;;;9.18;4.63;;;;;;;;;;5113858;28;20252;-34
2023/11/04 05:12:44;;;;;;;9.43;4.77;;;;;;;;;;5113766;28;20020;-29
2023/11/04 05:15:09;;;;;;;9.70;4.85;;;;;;;;;;5113801;28;20354;-29
2023/11/04 05:17:35;;;;;;;8.20;4.82;;;;;;;;;;5113981;28;20015;-30
2023/11/04 05:20:00;;;;;;;9.32;4.88;;;;;;;;;;5113672;28;20008;-29
2023/11/04 05:22:26;;;;;;;9.30;4.90;;;;;;;;;;5113720;28;20094;-30
2023/11/04 05:24:51;;;;;;;9.43;4.67;;;;;;;;;;5114196;28;20019;-30
2023/11/04 05:27:16;;;;;;;13.35;6.32;;;;;;;;;;5114204;28;20275;-30
2023/11/04 05:29:41;;;;;;;11.73;5.20;;;;;;;;;;5114221;28;20020;-29
2023/11/04 05:32:07;;;;;;;11.20;5.53;;;;;;;;;;5113680;28;20073;-29
2023/11/04 05:34:33;;;;;;;10.32;5.00;;;;;;;;;;5095400;28;20046;-29
2023/11/04 05:36:58;;;;;;;14.43;5.28;;;;;;;;;;5115988;28;20023;-30
2023/11/04 05:39:23;;;;;;;10.43;4.77;;;;;;;;;;5117716;28;20016;-29
2023/11/04 05:41:48;;;;;;;9.38;5.45;;;;;;;;;;5118145;28;20295;-29
2023/11/04 05:44:14;;;;;;;8.45;4.68;;;;;;;;;;5118159;28;20020;-30
2023/11/04 05:46:39;;;;;;;8.32;4.95;;;;;;;;;;5117593;28;20060;-29
2023/11/04 05:49:04;;;;;;;9.03;4.97;;;;;;;;;;5099148;28;20351;-29
2023/11/04 05:51:30;;;;;;;9.23;5.18;;;;;;;;;;5117412;28;20285;-29
2023/11/04 05:53:55;;;;;;;7.85;5.20;;;;;;;;;;5117611;28;20420;-30
2023/11/04 05:56:20;;;;;;;13.13;5.27;;;;;;;;;;5117379;28;20043;-30
2023/11/04 05:58:47;;;;;;;9.68;4.97;;;;;;;;;;5117975;28;20335;-29
2023/11/04 06:01:12;;;;;;;11.20;5.88;;;;;;;;;;5117194;28;20022;-30
2023/11/04 06:03:37;;;;;;;9.02;5.15;;;;;;;;;;5117496;28;20011;-30
2023/11/04 06:06:03;;;;;;;10.80;5.03;;;;;;;;;;5117147;28;20473;-30
2023/11/04 06:08:28;;;;;;;11.13;5.18;;;;;;;;;;5117012;28;20344;-30
2023/11/04 06:10:53;;;;;;;8.27;5.32;;;;;;;;;;5117921;28;20039;-29
2023/11/04 06:13:18;;;;;;;8.97;5.03;;;;;;;;;;5116984;28;20022;-30
2023/11/04 06:15:43;;;;;;;11.07;4.90;;;;;;;;;;5116947;28;20651;-29
2023/11/04 06:18:09;;;;;;;13.35;4.80;;;;;;;;;;5116856;28;20349;-30
2023/11/04 06:20:34;;;;;;;13.03;5.33;;;;;;;;;;5116923;28;20019;-30
2023/11/04 06:22:59;;;;;;;12.30;4.50;;;;;;;;;;5117401;28;20246;-30
2023/11/04 06:25:24;;;;;;;11.85;4.47;;;;;;;;;;5117026;28;20696;-29
2023/11/04 06:27:49;;;;;;;9.03;4.33;;;;;;;;;;5116746;28;20478;-30
2023/11/04 06:30:15;;;;;;;13.90;4.40;;;;;;;;;;5116935;28;20262;-30
2023/11/04 06:32:40;;;;;;;10.77;3.90;;;;;;;;;;5117169;28;20092;-29
2023/11/04 06:35:06;;;;;;;8.73;4.50;;;;;;;;;;5116615;28;20322;-30
2023/11/04 06:37:31;;;;;;;10.48;3.80;;;;;;;;;;5116769;28;20281;-30
2023/11/04 06:39:57;;;;;;;7.97;3.63;;;;;;;;;;5116975;28;20012;-30
2023/11/04 06:42:26;;;;;;;7.53;3.33;;;;;;;;;;5116482;28;20246;-29
2023/11/04 06:44:51;;;;;;;13.52;3.58;;;;;;;;;;5116641;28;20039;-30
2023/11/04 06:47:17;;;;;;;12.40;3.45;;;;;;;;;;5116131;28;20019;-29
2023/11/04 06:49:42;;;;;;;8.13;3.60;;;;;;;;;;5116083;28;20394;-30
2023/11/04 06:52:07;;;;;;;7.53;3.03;;;;;;;;;;5116183;28;20281;-30
2023/11/04 06:54:32;;;;;;;11.23;3.47;;;;;;;;;;5116149;28;20772;-29
2023/11/04 06:56:58;;;;;;;12.03;3.33;;;;;;;;;;5116390;28;20107;-30
2023/11/04 06:59:23;;;;;;;6.13;3.10;;;;;;;;;;5097908;28;20261;-30
2023/11/04 07:01:49;;;;;;;8.77;3.15;;;;;;;;;;5116643;28;20257;-30
2023/11/04 07:04:14;;;;;;;10.10;3.38;;;;;;;;;;5098032;28;20035;-29
2023/11/04 07:06:39;;;;;;;11.10;3.10;;;;;;;;;;5116545;28;20055;-29
2023/11/04 07:09:04;;;;;;;6.75;3.40;;;;;;;;;;5116198;28;20751;-30
2023/11/04 07:11:29;;;;;;;7.30;2.80;;;;;;;;;;5116449;28;20051;-30
2023/11/04 07:13:54;;;;;;;5.77;3.27;;;;;;;;;;5116135;28;20253;-29
2023/11/04 07:16:20;;;;;;;8.80;3.50;;;;;;;;;;5116141;28;20253;-30
2023/11/04 07:18:45;;;;;;;10.73;3.23;;;;;;;;;;5115696;28;20372;-31
2023/11/04 07:21:11;;;;;;;8.13;3.33;;;;;;;;;;5116100;28;20244;-30
2023/11/04 07:23:37;;;;;;;11.00;3.50;;;;;;;;;;5115752;28;20307;-30
2023/11/04 07:26:02;;;;;;;9.98;3.30;;;;;;;;;;5115730;28;20016;-30
2023/11/04 07:28:36;;;;;;;10.63;3.15;;;;;;;;;;5115417;28;20459;-30
2023/11/04 07:31:02;;;;;;;10.88;3.35;;;;;;;;;;5115618;28;20031;-30
2023/11/04 07:33:27;;;;;;;9.50;3.60;;;;;;;;;;5115334;28;20369;-30
2023/11/04 07:35:52;;;;;;;7.23;2.90;;;;;;;;;;5115595;28;20031;-30
2023/11/04 07:38:18;;;;;;;7.80;2.57;;;;;;;;;;5115208;28;20620;-30
2023/11/04 07:40:43;;;;;;;10.57;2.92;;;;;;;;;;5115203;28;20344;-30
2023/11/04 07:43:09;;;;;;;9.15;3.00;;;;;;;;;;5115432;28;20454;-29
2023/11/04 07:45:34;;;;;;;10.57;2.70;;;;;;;;;;5115107;28;20020;-29
2023/11/04 07:47:59;;;;;;;9.57;2.87;;;;;;;;;;5115012;28;20136;-30
2023/11/04 07:50:24;;;;;;;11.80;3.13;;;;;;;;;;5115336;28;20277;-30
2023/11/04 07:52:50;;;;;;;8.23;3.03;;;;;;;;;;5114678;28;20134;-29
2023/11/04 07:55:15;;;;;;;7.60;3.03;;;;;;;;;;5115160;28;20015;-29
2023/11/04 07:57:40;;;;;;;6.97;2.40;;;;;;;;;;5115362;28;20362;-30
2023/11/04 08:00:07;;;;;;;10.07;2.83;;;;;;;;;;5114264;28;20015;-30
2023/11/04 08:02:33;;;;;;;8.82;2.35;;;;;;;;;;5114794;28;20090;-30
2023/11/04 08:05:03;;;;;;;10.75;2.30;;;;;;;;;;5115219;28;20078;-30
2023/11/04 08:07:29;;;;;;;10.70;2.58;;;;;;;;;;5114955;28;20379;-30
2023/11/04 08:09:55;;;;;;;12.00;2.60;;;;;;;;;;5114875;28;20366;-29
2023/11/04 08:12:20;;;;;;;9.75;2.30;;;;;;;;;;5114546;28;20027;-29
2023/11/04 08:14:45;;;;;;;5.95;2.00;;;;;;;;;;5114640;28;20020;-30
2023/11/04 08:17:10;;;;;;;14.40;2.45;;;;;;;;;;5114505;28;20038;-30
2023/11/04 08:19:36;;;;;;;10.43;2.40;;;;;;;;;;5096350;28;20023;-30
2023/11/04 08:22:01;;;;;;;8.87;2.10;;;;;;;;;;5114886;28;20346;-30
2023/11/04 08:24:26;;;;;;;9.18;2.22;;;;;;;;;;5114484;28;20245;-30
2023/11/04 08:26:52;;;;;;;8.80;2.10;;;;;;;;;;5114428;28;20592;-30
2023/11/04 08:29:17;;;;;;;15.50;2.60;;;;;;;;;;5114299;28;20262;-30
2023/11/04 08:31:43;;;;;;;10.10;1.85;;;;;;;;;;5114233;28;20058;-29
2023/11/04 08:34:08;;;;;;;7.32;2.30;;;;;;;;;;5114822;28;20059;-30
2023/11/04 08:36:34;;;;;;;10.33;2.10;;;;;;;;;;5114655;28;20016;-30
2023/11/04 08:38:59;;;;;;;11.05;2.40;;;;;;;;;;5114516;28;20250;-30
2023/11/04 08:41:24;;;;;;;9.23;2.10;;;;;;;;;;5114797;28;20011;-30
2023/11/04 08:43:49;;;;;;;6.03;1.83;;;;;;;;;;5114696;28;20250;-29
2023/11/04 08:46:18;;;;;;;8.75;2.20;;;;;;;;;;5114118;28;20336;-29
2023/11/04 08:48:43;;;;;;;10.82;2.45;;;;;;;;;;5114270;28;20019;-30
2023/11/04 08:51:09;;;;;;;8.73;1.90;;;;;;;;;;5113718;28;20459;-30
2023/11/04 08:53:34;;;;;;;6.13;1.90;;;;;;;;;;5114449;28;20034;-30
2023/11/04 08:55:59;;;;;;;6.37;2.00;;;;;;;;;;5114392;28;20015;-30
2023/11/04 08:58:24;;;;;;;8.30;2.27;;;;;;;;;;5113868;28;20324;-29
2023/11/04 09:00:50;;;;;;;6.90;2.03;;;;;;;;;;5114085;28;20600;-30
2023/11/04 09:03:15;;;;;;;8.55;2.05;;;;;;;;;;5114010;28;20758;-30
2023/11/04 09:05:41;;;;;;;8.60;2.10;;;;;;;;;;5113943;28;20012;-30
2023/11/04 09:08:06;;;;;;;7.82;2.17;;;;;;;;;;5113651;28;20117;-30
2023/11/04 09:10:31;;;;;;;12.63;2.20;;;;;;;;;;5113514;28;20354;-30
2023/11/04 09:12:56;;;;;;;7.03;2.00;;;;;;;;;;5113682;28;20261;-30
2023/11/04 09:15:22;;;;;;;11.10;3.40;;;;;;;;;;5113997;28;20450;-29
2023/11/04 09:17:47;;;;;;;7.87;2.20;;;;;;;;;;5113593;28;20066;-30
2023/11/04 09:20:12;;;;;;;7.33;1.97;;;;;;;;;;5113653;28;20744;-30
2023/11/04 09:22:37;;;;;;;7.65;2.00;;;;;;;;;;5113841;28;20336;-30
2023/11/04 09:25:03;;;;;;;6.82;2.35;;;;;;;;;;5113518;28;20015;-30
2023/11/04 09:27:29;;;;;;;8.40;2.05;;;;;;;;;;5113839;28;20030;-30
2023/11/04 09:29:54;;;;;;;7.13;1.92;;;;;;;;;;5113823;28;20066;-29
2023/11/04 09:32:20;;;;;;;6.15;1.80;;;;;;;;;;5113906;28;20050;-30
2023/11/04 09:34:45;;;;;;;8.13;1.75;;;;;;;;;;5113798;28;20011;-30
2023/11/04 09:37:11;;;;;;;6.73;1.90;;;;;;;;;;5095153;28;20034;-30
2023/11/04 09:39:36;;;;;;;9.13;1.90;;;;;;;;;;5113362;28;20023;-30
2023/11/04 09:42:01;;;;;;;7.38;2.40;;;;;;;;;;5113265;28;20016;-30
2023/11/04 09:44:27;;;;;;;8.03;1.97;;;;;;;;;;5112965;28;20374;-30
2023/11/04 09:46:52;;;;;;;7.60;2.13;;;;;;;;;;5112835;28;20276;-30
2023/11/04 09:49:18;;;;;;;8.23;2.17;;;;;;;;;;5113391;28;20011;-30
2023/11/04 09:51:43;;;;;;;7.07;2.22;;;;;;;;;;5094850;28;20356;-30
2023/11/04 09:54:11;;;;;;;8.20;2.20;;;;;;;;;;5113417;28;20051;-29
2023/11/04 09:56:36;;;;;;;4.88;1.75;;;;;;;;;;5113393;28;20609;-30
2023/11/04 09:59:01;;;;;;;7.60;2.17;;;;;;;;;;5113278;28;20016;-30
2023/11/04 10:01:27;;;;;;;7.40;1.98;;;;;;;;;;5113288;28;20416;-30
2023/11/04 10:03:52;;;;;;;6.18;1.58;;;;;;;;;;5113420;28;20027;-29
2023/11/04 10:06:17;;;;;;;5.72;1.70;;;;;;;;;;5095004;28;20004;-29
2023/11/04 10:08:43;;;;;;;10.07;2.00;;;;;;;;;;5113505;28;20026;-30
2023/11/04 10:11:08;;;;;;;8.23;1.95;;;;;;;;;;5113347;28;20254;-29
2023/11/04 10:13:34;;;;;;;5.78;1.63;;;;;;;;;;5113461;28;20419;-30
2023/11/04 10:15:59;;;;;;;8.15;1.70;;;;;;;;;;5113880;28;20020;-29
2023/11/04 10:18:24;;;;;;;7.07;2.03;;;;;;;;;;5113248;28;20024;-30
2023/11/04 10:20:52;;;;;;;6.68;1.83;;;;;;;;;;5113360;28;20265;-29
2023/11/04 10:23:18;;;;;;;6.50;1.80;;;;;;;;;;5096131;28;20024;-29
2023/11/04 10:25:43;;;;;;;6.30;1.70;;;;;;;;;;5116772;28;20462;-30
2023/11/04 10:28:09;;;;;;;6.13;1.93;;;;;;;;;;5116701;28;20250;-30
2023/11/04 10:30:37;;;;;;;4.78;1.63;;;;;;;;;;5116935;28;20387;-30
2023/11/04 10:33:07;;;;;;;7.15;1.80;;;;;;;;;;5116586;28;20020;-30
2023/11/04 10:35:33;;;;;;;6.63;1.55;;;;;;;;;;5116866;28;20020;-30
2023/11/04 10:37:59;;;;;;;5.38;1.33;;;;;;;;;;5116416;28;20083;-30
2023/11/04 10:40:25;;;;;;;7.72;1.60;;;;;;;;;;5116418;28;20022;-29
2023/11/04 10:42:54;;;;;;;11.48;1.75;;;;;;;;;;5116260;28;20450;-30
2023/11/04 10:45:23;;;;;;;7.50;1.60;;;;;;;;;;5116302;28;20016;-30
2023/11/04 10:47:51;;;;;;;8.20;1.45;;;;;;;;;;5116624;28;20458;-30
2023/11/04 10:50:24;;;;;;;8.23;1.63;;;;;;;;;;5116238;28;20111;-30
2023/11/04 10:53:00;;;;;;;6.30;1.58;;;;;;;;;;5116050;28;20051;-30
2023/11/04 10:55:29;;;;;;;7.13;1.50;;;;;;;;;;5116054;28;20097;-29
2023/11/04 10:57:59;;;;;;;6.07;1.63;;;;;;;;;;5116149;28;20047;-30
2023/11/04 11:00:25;;;;;;;5.60;1.52;;;;;;;;;;5115800;28;20073;-30
2023/11/04 11:02:52;;;;;;;6.47;1.75;;;;;;;;;;5116390;28;20023;-30
2023/11/04 11:05:22;;;;;;;6.18;1.40;;;;;;;;;;5115968;28;20023;-30
2023/11/04 11:07:47;;;;;;;6.30;1.40;;;;;;;;;;5115772;28;20011;-29
2023/11/04 11:10:13;;;;;;;6.40;1.40;;;;;;;;;;5115583;28;20092;-30
2023/11/04 11:12:42;;;;;;;6.13;1.60;;;;;;;;;;5115800;28;20027;-29
2023/11/04 11:15:08;;;;;;;4.65;1.30;;;;;;;;;;5115541;28;20020;-30
2023/11/04 11:17:33;;;;;;;4.78;1.40;;;;;;;;;;5116184;28;20019;-29
2023/11/04 11:19:58;;;;;;;8.93;1.60;;;;;;;;;;5114114;28;20117;-30
2023/11/04 11:22:24;;;;;;;8.85;1.83;;;;;;;;;;5114430;28;20035;-30
2023/11/04 11:24:55;;;;;;;5.05;1.35;;;;;;;;;;5114461;28;20025;-29
2023/11/04 11:27:20;;;;;;;8.02;1.75;;;;;;;;;;5115550;28;20020;-30
2023/11/04 11:29:46;;;;;;;6.03;1.42;;;;;;;;;;5115692;28;20026;-29
2023/11/04 11:32:11;;;;;;;7.45;1.33;;;;;;;;;;5115324;28;20481;-29
2023/11/04 11:34:53;;;;;;;5.38;1.45;;;;;;;;;;5115108;28;20019;-30
2023/11/04 11:37:19;;;;;;;6.22;1.45;;;;;;;;;;5115708;28;20024;-30
2023/11/04 11:39:44;;;;;;;8.43;1.48;;;;;;;;;;5115348;28;20007;-29
2023/11/04 11:42:10;;;;;;;3.72;1.40;;;;;;;;;;5116167;28;20042;-30
2023/11/04 11:44:35;;;;;;;4.40;1.52;;;;;;;;;;5115237;28;20043;-30
2023/11/04 11:47:01;;;;;;;4.33;1.33;;;;;;;;;;5114981;28;20024;-30
2023/11/04 11:49:26;;;;;;;10.43;1.60;;;;;;;;;;5114632;28;20339;-28
2023/11/04 11:51:52;;;;;;;5.53;1.67;;;;;;;;;;5114457;28;20044;-30
2023/11/04 11:54:17;;;;;;;2.40;0.90;;;;;;;;;;5114699;28;20265;-29
2023/11/04 11:56:42;;;;;;;4.15;1.40;;;;;;;;;;5114617;28;20020;-28
2023/11/04 11:59:09;;;;;;;5.53;1.75;;;;;;;;;;5114473;28;20047;-28
2023/11/04 12:01:34;;;;;;;5.22;1.30;;;;;;;;;;5114432;28;20072;-28
2023/11/04 12:04:01;;;;;;;5.35;1.48;;;;;;;;;;5115100;28;20019;-28
2023/11/04 12:06:27;;;;;;;7.60;2.10;;;;;;;;;;5096578;28;20022;-28
2023/11/04 12:08:55;;;;;;;3.83;1.45;;;;;;;;;;5115233;28;20024;-28
2023/11/04 12:11:21;;;;;;;5.68;1.42;;;;;;;;;;5114947;28;20024;-28
2023/11/04 12:13:46;;;;;;;5.68;1.30;;;;;;;;;;5114651;28;20023;-28
2023/11/04 12:16:12;;;;;;;6.38;1.20;;;;;;;;;;5114852;28;20039;-28
2023/11/04 12:18:37;;;;;;;3.97;2.22;;;;;;;;;;5115444;28;20024;-29
2023/11/04 12:21:03;;;;;;;5.80;1.20;;;;;;;;;;5114631;28;20011;-29
2023/11/04 12:23:29;;;;;;;5.72;1.10;;;;;;;;;;5114569;28;20673;-29
2023/11/04 12:25:56;;;;;;;6.72;1.42;;;;;;;;;;5114422;28;20073;-28
2023/11/04 12:28:22;;;;;;;5.85;1.50;;;;;;;;;;5114633;28;20092;-29
2023/11/04 12:30:57;;;;;;;2.42;1.00;;;;;;;;;;5114263;28;20439;-28
2023/11/04 12:33:22;;;;;;;4.72;1.08;;;;;;;;;;5113874;28;20050;-28
2023/11/04 12:35:56;;;;;;;11.53;1.47;;;;;;;;;;5114774;28;20061;-28
2023/11/04 12:38:21;;;;;;;4.88;1.20;;;;;;;;;;5114093;28;20024;-28
2023/11/04 12:40:46;;;;;;;2.45;1.13;;;;;;;;;;5114626;28;20095;-29
2023/11/04 12:43:11;;;;;;;8.60;1.40;;;;;;;;;;5114297;28;20034;-28
2023/11/04 12:45:38;;;;;;;3.47;1.20;;;;;;;;;;5114005;28;20016;-28
2023/11/04 12:48:03;;;;;;;6.55;1.30;;;;;;;;;;5113851;28;20274;-28
2023/11/04 12:50:28;;;;;;;4.47;1.42;;;;;;;;;;5111860;28;20370;-28
2023/11/04 12:52:59;;;;;;;8.80;1.55;;;;;;;;;;5111702;28;20486;-29
2023/11/04 12:55:24;;;;;;;4.75;1.38;;;;;;;;;;5111783;28;20459;-29
2023/11/04 12:57:50;;;;;;;4.00;1.30;;;;;;;;;;5111774;28;20080;-28
2023/11/04 13:00:15;;;;;;;4.45;1.60;;;;;;;;;;5111932;28;20366;-28
2023/11/04 13:02:40;;;;;;;7.10;2.35;;;;;;;;;;5111958;28;20540;-29
2023/11/04 13:05:06;;;;;;;3.43;1.40;;;;;;;;;;5113210;28;20022;-29
2023/11/04 13:07:31;;;;;;;5.45;1.45;;;;;;;;;;5114063;28;20253;-28
2023/11/04 13:09:57;;;;;;;3.77;1.67;;;;;;;;;;5113828;28;20015;-28
2023/11/04 13:12:22;;;;;;;4.45;1.40;;;;;;;;;;5114245;28;20272;-28
2023/11/04 13:14:48;;;;;;;5.47;1.60;;;;;;;;;;5113894;28;20106;-29
2023/11/04 13:17:13;;;;;;;5.97;1.60;;;;;;;;;;5113624;28;20023;-28
2023/11/04 13:19:38;;;;;;;6.67;1.70;;;;;;;;;;5113605;28;20257;-28
2023/11/04 13:22:03;;;;;;;5.60;1.20;;;;;;;;;;5113922;28;20254;-28
2023/11/04 13:24:29;;;;;;;5.63;1.43;;;;;;;;;;5114235;28;20012;-28
2023/11/04 13:26:54;;;;;;;3.88;1.23;;;;;;;;;;5114077;28;20275;-28
2023/11/04 13:29:19;;;;;;;4.10;1.30;;;;;;;;;;5114256;28;20016;-28
2023/11/04 13:31:44;;;;;;;4.13;1.50;;;;;;;;;;5114066;28;20091;-29
2023/11/04 13:34:10;;;;;;;3.73;1.23;;;;;;;;;;5114134;28;20023;-28
2023/11/04 13:36:37;;;;;;;3.80;1.20;;;;;;;;;;5113107;28;20274;-28
2023/11/04 13:39:06;;;;;;;2.88;1.10;;;;;;;;;;5113325;28;20820;-29
2023/11/04 13:41:31;;;;;;;2.08;1.35;;;;;;;;;;5113280;28;20011;-28
2023/11/04 13:43:56;;;;;;;2.45;1.33;;;;;;;;;;5112902;28;20063;-28
2023/11/04 13:46:22;;;;;;;3.33;1.17;;;;;;;;;;5113030;28;20012;-28
2023/11/04 13:48:47;;;;;;;2.53;1.00;;;;;;;;;;5113053;28;20307;-28
2023/11/04 13:51:12;;;;;;;4.87;1.37;;;;;;;;;;5113059;28;20285;-29
2023/11/04 13:53:37;;;;;;;3.45;1.20;;;;;;;;;;5113444;28;20248;-28
2023/11/04 13:56:02;;;;;;;5.10;1.43;;;;;;;;;;5113394;28;20023;-28
2023/11/04 13:58:28;;;;;;;4.68;1.55;;;;;;;;;;5116512;28;20278;-28
2023/11/04 14:00:53;;;;;;;2.90;1.25;;;;;;;;;;5117837;28;20016;-28
2023/11/04 14:03:18;;;;;;;4.07;1.15;;;;;;;;;;5117425;28;20043;-28
2023/11/04 14:05:43;;;;;;;4.17;1.43;;;;;;;;;;5117482;28;20015;-29
2023/11/04 14:08:09;;;;;;;1.95;1.33;;;;;;;;;;5116653;28;20261;-28
2023/11/04 14:10:34;;;;;;;4.72;1.63;;;;;;;;;;5115201;28;20105;-28
2023/11/04 14:12:59;;;;;;;5.00;1.40;;;;;;;;;;5114825;28;20019;-28
2023/11/04 14:15:24;;;;;;;5.80;1.40;;;;;;;;;;5114967;28;20024;-29
2023/11/04 14:17:50;;;;;;;2.97;1.33;;;;;;;;;;5114805;28;20398;-28
2023/11/04 14:20:20;;;;;;;3.53;1.45;;;;;;;;;;5114796;28;20286;-28
2023/11/04 14:22:45;;;;;;;2.85;1.00;;;;;;;;;;5114902;28;20412;-28
2023/11/04 14:25:10;;;;;;;3.23;1.30;;;;;;;;;;5115581;28;20016;-29
2023/11/04 14:27:36;;;;;;;3.97;1.48;;;;;;;;;;5117704;28;20276;-28
2023/11/04 14:30:02;;;;;;;4.68;1.25;;;;;;;;;;5117417;28;20098;-29
2023/11/04 14:32:27;;;;;;;2.33;1.10;;;;;;;;;;5116867;28;20093;-29